KSVC/SVC METAR and TAF weather

Enter ICAO airport designator
Station Type Date Time Source
KSVC METAR 2021/09/20 04:55 UTC NOAA

KSVC 200455Z AUTO 30008KT 10SM CLR 22/11 A3011 RMK AO2 T02210106


Station Type Date Time Source
KSVC Decoded METAR 2021/09/20 04:55 UTC NOAA

Silver City / Grant, NM, United States (KSVC) 32-38N 108-09W
Sep 20, 2021 - 12:55 AM EDT / 2021.09.20 0455 UTC
Wind: from the WNW (300 degrees) at 9 MPH (8 KT):0
Visibility: 10 mile(s):0
Sky conditions: clear
Temperature: 71.8 F (22.1 C)
Dew Point: 51.1 F (10.6 C)
Relative Humidity: 48%
Pressure (altimeter): 30.11 in. Hg (1019 hPa)
ob: KSVC 200455Z AUTO 30008KT 10SM CLR 22/11 A3011 RMK AO2 T02210106
cycle: 5

Station Type Date Time Source
KSVC TAF UTC NOAA

Error!

Example: see airport list